createdAt,value
2023-03-29T00:00:32.863Z,56.09
2023-03-29T00:05:35.141Z,55.96
2023-03-29T00:10:37.207Z,56.66
2023-03-29T00:15:38.578Z,57.77
2023-03-29T00:20:40.008Z,57.59
2023-03-29T00:25:41.453Z,58.21
2023-03-29T00:30:42.729Z,58.61
2023-03-29T00:35:44.041Z,57.88
2023-03-29T00:40:45.324Z,58.55
2023-03-29T00:45:46.588Z,58.68
2023-03-29T00:50:48.344Z,58.32
2023-03-29T00:55:49.685Z,58.52
2023-03-29T01:00:52.218Z,59.04
2023-03-29T01:05:53.469Z,58.24
2023-03-29T01:10:54.672Z,59.65
2023-03-29T01:15:55.957Z,61.05
2023-03-29T01:21:02.862Z,61.41
2023-03-29T01:26:04.176Z,61.74
2023-03-29T01:31:08.379Z,60.05
2023-03-29T01:36:09.653Z,59.29
2023-03-29T01:41:11.235Z,59.98
2023-03-29T01:46:12.709Z,59.89
2023-03-29T01:51:13.936Z,60.80
2023-03-29T01:56:15.148Z,59.70
2023-03-29T02:01:17.660Z,59.29
2023-03-29T02:06:19.121Z,59.01
2023-03-29T02:11:20.332Z,59.70
2023-03-29T02:16:21.666Z,59.82
2023-03-29T02:21:22.892Z,59.72
2023-03-29T02:26:24.609Z,60.19
2023-03-29T02:31:26.122Z,61.67
2023-03-29T02:36:28.258Z,61.56
2023-03-29T02:41:29.722Z,62.23
2023-03-29T02:46:31.466Z,64.06
2023-03-29T02:51:32.724Z,64.96
2023-03-29T02:56:33.948Z,65.18
2023-03-29T03:01:37.137Z,65.56
2023-03-29T03:06:38.428Z,66.45
2023-03-29T03:11:39.844Z,67.58
2023-03-29T03:16:41.706Z,68.66
2023-03-29T03:21:43.297Z,68.76
2023-03-29T03:26:46.344Z,69.19
2023-03-29T03:31:47.621Z,69.78
2023-03-29T03:36:48.956Z,70.22
2023-03-29T03:41:50.164Z,70.46
2023-03-29T03:46:51.464Z,72.00
2023-03-29T03:51:53.107Z,72.60
2023-03-29T03:56:54.356Z,72.15
2023-03-29T04:01:55.791Z,71.72
2023-03-29T04:07:02.618Z,72.09
2023-03-29T04:12:03.924Z,73.17
2023-03-29T04:17:05.721Z,72.95
2023-03-29T04:22:07.010Z,73.07
2023-03-29T04:27:08.264Z,72.61
2023-03-29T04:32:09.516Z,72.81
2023-03-29T04:37:10.798Z,73.19
2023-03-29T04:42:12.489Z,73.36
2023-03-29T04:47:13.812Z,73.05
2023-03-29T04:52:15.106Z,73.97
2023-03-29T04:57:17.188Z,74.71
2023-03-29T05:02:18.523Z,74.39
2023-03-29T05:07:19.869Z,75.86
2023-03-29T05:12:21.103Z,77.64
2023-03-29T05:17:22.466Z,77.23
2023-03-29T05:22:23.765Z,76.57
2023-03-29T05:27:25.515Z,76.41
2023-03-29T05:32:27.086Z,76.25
2023-03-29T05:37:28.615Z,77.87
2023-03-29T05:42:29.910Z,78.75
2023-03-29T05:47:31.711Z,80.18
2023-03-29T05:52:32.975Z,79.42
2023-03-29T05:57:34.182Z,79.83
2023-03-29T06:02:36.802Z,79.16
2023-03-29T06:07:38.422Z,78.92
2023-03-29T06:12:39.869Z,80.31
2023-03-29T06:17:41.195Z,79.99
2023-03-29T06:22:42.548Z,79.87
2023-03-29T06:27:43.818Z,79.24
2023-03-29T06:32:45.253Z,77.81
2023-03-29T06:37:49.992Z,78.62
2023-03-29T06:42:57.715Z,81.18
2023-03-29T06:47:59.247Z,82.62
2023-03-29T06:53:00.578Z,81.88
2023-03-29T06:58:02.866Z,81.35
2023-03-29T07:03:04.262Z,80.68
2023-03-29T07:08:05.514Z,81.26
2023-03-29T07:13:07.087Z,82.17
2023-03-29T07:18:08.513Z,82.94
2023-03-29T07:23:09.767Z,82.36
2023-03-29T07:28:11.279Z,81.91
2023-03-29T07:33:13.235Z,82.46
2023-03-29T07:38:15.539Z,82.21
2023-03-29T07:43:18.310Z,82.38
2023-03-29T07:48:19.710Z,81.50
2023-03-29T07:53:21.163Z,80.09
2023-03-29T07:58:22.536Z,80.16
2023-03-29T08:03:24.000Z,80.83
2023-03-29T08:08:25.432Z,81.75
2023-03-29T08:13:26.791Z,81.28
2023-03-29T08:18:28.384Z,80.72
2023-03-29T08:23:29.904Z,80.51
2023-03-29T08:28:31.155Z,79.07
2023-03-29T08:33:32.571Z,80.45
2023-03-29T08:38:33.810Z,79.52
2023-03-29T08:43:36.704Z,80.78
2023-03-29T08:48:38.045Z,80.67
2023-03-29T08:53:40.170Z,80.50
2023-03-29T08:58:41.557Z,79.05
2023-03-29T09:03:43.135Z,78.85
2023-03-29T09:08:44.492Z,78.87
2023-03-29T09:13:45.894Z,79.21
2023-03-29T09:18:47.553Z,77.23
2023-03-29T09:23:48.876Z,77.77
2023-03-29T09:28:50.108Z,76.92
2023-03-29T09:33:51.380Z,76.32
2023-03-29T09:38:54.429Z,75.93
2023-03-29T09:43:55.931Z,75.92
2023-03-29T09:48:57.243Z,75.53
2023-03-29T09:54:00.221Z,75.35
2023-03-29T09:59:01.486Z,75.28
2023-03-29T10:04:02.817Z,75.02
2023-03-29T10:09:04.708Z,72.90
2023-03-29T10:14:06.519Z,72.65
2023-03-29T10:19:07.799Z,71.68
2023-03-29T10:24:09.076Z,71.72
2023-03-29T10:29:10.349Z,71.22
2023-03-29T10:34:11.827Z,71.43
2023-03-29T10:39:13.174Z,71.95
2023-03-29T10:44:14.392Z,70.60
2023-03-29T10:49:15.652Z,70.54
2023-03-29T10:54:17.361Z,71.20
2023-03-29T10:59:18.765Z,69.98
2023-03-29T11:04:20.016Z,70.22
2023-03-29T11:09:21.216Z,69.63
2023-03-29T11:14:22.507Z,69.36
2023-03-29T11:19:23.894Z,68.27
2023-03-29T11:24:25.155Z,68.07
2023-03-29T11:29:27.162Z,65.47
2023-03-29T11:34:29.594Z,61.08
2023-03-29T11:39:30.898Z,64.85
2023-03-29T11:44:32.194Z,65.80
2023-03-29T11:49:33.426Z,67.26
2023-03-29T11:54:35.367Z,68.40
2023-03-29T11:59:36.611Z,69.17
2023-03-29T12:04:37.909Z,69.93
2023-03-29T12:09:39.472Z,66.68
2023-03-29T12:14:40.777Z,68.26
2023-03-29T12:19:43.670Z,69.53
2023-03-29T12:24:45.237Z,70.23
2023-03-29T12:29:46.618Z,68.44
2023-03-29T12:34:47.842Z,68.48
2023-03-29T12:39:49.255Z,68.60
2023-03-29T12:44:50.627Z,68.64
2023-03-29T12:49:51.954Z,68.96
2023-03-29T12:54:53.204Z,68.36
2023-03-29T12:59:54.993Z,67.55
2023-03-29T13:04:56.337Z,69.68
2023-03-29T13:09:57.689Z,68.97
2023-03-29T13:14:58.986Z,68.02
2023-03-29T13:20:00.853Z,68.13
2023-03-29T13:25:02.229Z,67.84
2023-03-29T13:30:04.526Z,69.54
2023-03-29T13:35:06.329Z,67.10
2023-03-29T13:40:07.686Z,66.33
2023-03-29T13:45:08.896Z,66.70
2023-03-29T13:50:10.246Z,66.35
2023-03-29T13:55:11.801Z,65.39
2023-03-29T14:00:15.488Z,64.66
2023-03-29T14:05:16.774Z,63.72
2023-03-29T14:10:17.977Z,62.89
2023-03-29T14:15:19.239Z,61.10
2023-03-29T14:20:21.003Z,62.26
2023-03-29T14:25:22.721Z,61.14
2023-03-29T14:30:24.123Z,63.28
2023-03-29T14:35:25.768Z,65.29
2023-03-29T14:40:27.795Z,65.20
2023-03-29T14:45:29.143Z,65.96
2023-03-29T14:50:30.962Z,66.38
2023-03-29T14:55:32.282Z,65.76
2023-03-29T15:00:35.029Z,65.68
2023-03-29T15:05:36.271Z,65.69
2023-03-29T15:10:37.558Z,65.99
2023-03-29T15:15:39.001Z,65.86
2023-03-29T15:20:40.832Z,65.78
2023-03-29T15:25:42.384Z,66.12
2023-03-29T15:30:45.073Z,65.36
2023-03-29T15:35:49.006Z,65.05
2023-03-29T15:40:50.563Z,63.96
2023-03-29T15:45:52.312Z,63.42
2023-03-29T15:50:53.636Z,62.52
2023-03-29T15:55:54.912Z,62.11
2023-03-29T16:00:56.368Z,63.67
2023-03-29T16:05:57.772Z,62.99
2023-03-29T16:10:59.042Z,63.18
2023-03-29T16:16:00.629Z,63.14
2023-03-29T16:21:01.946Z,64.51
2023-03-29T16:26:03.404Z,62.08
2023-03-29T16:31:05.087Z,62.42
2023-03-29T16:36:06.614Z,61.74
2023-03-29T16:41:08.207Z,61.92
2023-03-29T16:46:09.564Z,61.92
2023-03-29T16:51:10.818Z,62.73
2023-03-29T16:56:12.073Z,63.34
2023-03-29T17:01:13.461Z,63.40
2023-03-29T17:06:14.787Z,64.45
2023-03-29T17:11:16.255Z,65.26
2023-03-29T17:16:17.659Z,66.02
2023-03-29T17:21:19.048Z,66.35
2023-03-29T17:26:20.405Z,66.13
2023-03-29T17:31:21.833Z,66.68
2023-03-29T17:36:25.015Z,66.41
2023-03-29T17:41:28.580Z,67.05
2023-03-29T17:46:31.134Z,67.16
2023-03-29T17:51:32.434Z,66.95
2023-03-29T17:56:33.942Z,68.19
2023-03-29T18:01:37.052Z,68.84
2023-03-29T18:06:40.512Z,68.63
2023-03-29T18:11:42.141Z,69.53
2023-03-29T18:16:43.535Z,69.09
2023-03-29T18:21:44.818Z,68.14
2023-03-29T18:26:46.102Z,68.80
2023-03-29T18:31:47.663Z,69.45
2023-03-29T18:36:50.467Z,69.42
2023-03-29T18:41:51.969Z,68.72
2023-03-29T18:46:53.500Z,68.64
2023-03-29T18:51:55.485Z,68.55
2023-03-29T18:56:58.704Z,68.70
2023-03-29T19:02:00.708Z,68.74
2023-03-29T19:07:02.936Z,68.61
2023-03-29T19:12:04.149Z,69.62
2023-03-29T19:17:05.417Z,69.41
2023-03-29T19:22:06.673Z,70.21
2023-03-29T19:27:09.250Z,71.04
2023-03-29T19:32:12.008Z,74.12
2023-03-29T19:37:13.253Z,75.97
2023-03-29T19:42:15.600Z,74.78
2023-03-29T19:47:16.864Z,72.58
2023-03-29T19:52:18.197Z,74.48
2023-03-29T19:57:19.507Z,74.06
2023-03-29T20:02:20.944Z,73.13
2023-03-29T20:07:22.178Z,73.19
2023-03-29T20:12:23.503Z,72.34
2023-03-29T20:17:24.744Z,71.16
2023-03-29T20:22:30.684Z,71.61
2023-03-29T20:27:32.014Z,71.03
2023-03-29T20:32:35.893Z,72.07
2023-03-29T20:37:37.182Z,73.14
2023-03-29T20:42:38.763Z,72.57
2023-03-29T20:47:42.353Z,71.91
2023-03-29T20:52:43.977Z,71.91
2023-03-29T20:57:45.198Z,72.40
2023-03-29T21:02:46.781Z,73.18
2023-03-29T21:07:48.082Z,72.34
2023-03-29T21:12:49.871Z,72.30
2023-03-29T21:17:51.408Z,71.98
2023-03-29T21:22:52.759Z,74.52
2023-03-29T21:27:54.171Z,75.84
2023-03-29T21:32:55.474Z,75.99
2023-03-29T21:37:56.725Z,76.47
2023-03-29T21:42:57.963Z,75.95
2023-03-29T21:47:59.334Z,75.24
2023-03-29T21:53:01.740Z,75.65
2023-03-29T21:58:03.565Z,73.91
2023-03-29T22:03:04.814Z,73.44
2023-03-29T22:08:06.161Z,74.45
2023-03-29T22:13:08.232Z,74.61
2023-03-29T22:18:10.065Z,75.34
2023-03-29T22:23:11.383Z,75.29
2023-03-29T22:28:13.616Z,74.31
2023-03-29T22:33:14.880Z,73.96
2023-03-29T22:38:16.175Z,74.31
2023-03-29T22:43:17.466Z,74.16
2023-03-29T22:48:18.689Z,76.29
2023-03-29T22:53:19.954Z,76.94
2023-03-29T22:58:21.453Z,77.28
2023-03-29T23:03:23.318Z,78.87
2023-03-29T23:08:24.630Z,78.63
2023-03-29T23:13:28.670Z,78.56
2023-03-29T23:18:30.268Z,78.68
2023-03-29T23:23:31.589Z,79.31
2023-03-29T23:28:34.581Z,79.10
2023-03-29T23:33:36.149Z,78.26
2023-03-29T23:38:37.442Z,77.45
2023-03-29T23:43:40.440Z,78.30
2023-03-29T23:48:42.356Z,78.31
2023-03-29T23:53:43.673Z,77.89
2023-03-29T23:58:45.053Z,78.66
